DNKN

Mallam Aminu International Airport

Kano, Nigeria
TAF DNKN 240930Z 2412/2518 20010KT 9999 SCT013 TEMPO 2415/2420 TS BKN013 FEW020CB
Issued Valid From Valid To
Jun-24 @ 09:30 UTC
(5 hours ago)
Jun-24 @ 12:00 UTC
(3 hours ago)
Jun-25 @ 18:00 UTC
(-1 days ago)
Jun-24 @ 12:00 to Jun-25 @ 18:00
TAF DNKN 240930Z 2412/2518 20010KT 9999 SCT013
Wind Visibility Clouds
200° at 10 knots 10,000+ meters
  • Scattered at 1,300' AGL
Temporary Jun-24 @ 15:00 to Jun-24 @ 20:00
TEMPO 2415/2420 TS BKN013 FEW020CB
Clouds Conditions
  • Broken at 1,300' AGL
  • Few at 2,000' AGL
  • Thunderstorm
TAF DNKN 240930Z 2412/2518 20010KT 9999 SCT013 TEMPO 2415/2420 TS BKN013 FEW020CB
Issued Jun-24 @ 09:30 UTC
(5 hours ago)
Valid From Jun-24 @ 12:00 UTC
(3 hours ago)
Valid To Jun-25 @ 18:00 UTC
(-1 days ago)
Jun-24 @ 12:00 - Jun-25 @ 18:00
Wind Visibility
200° at 10 knots 10,000+ meters
Clouds
  • Scattered at 1,300' AGL
Temporary Jun-24 @ 15:00 - Jun-24 @ 20:00
Clouds
  • Broken at 1,300' AGL
  • Few at 2,000' AGL
Conditions
  • Thunderstorm